sensor_id;sensor_type;location;lat;lon;timestamp;pressure;altitude;pressure_sealevel;temperature;humidity
50652;BME280;61429;52.086;5.240;2022-12-20T00:37:17;101138.0;;;11.16;74.14
50652;BME280;61429;52.086;5.240;2022-12-20T01:07:59;101131.0;;;11.45;73.42
50652;BME280;61429;52.086;5.240;2022-12-20T01:11:13;101132.0;;;11.47;73.33
50652;BME280;61429;52.086;5.240;2022-12-20T01:12:51;101130.0;;;11.51;73.44
50652;BME280;61429;52.086;5.240;2022-12-20T01:38:42;101120.0;;;11.25;79.52
50652;BME280;61429;52.086;5.240;2022-12-20T01:41:55;101118.0;;;11.12;80.5
50652;BME280;61429;52.086;5.240;2022-12-20T02:19:29;101076.0;;;11.04;82.58
50652;BME280;61429;52.086;5.240;2022-12-20T02:46:46;101061.0;;;11.01;84.6
50652;BME280;61429;52.086;5.240;2022-12-20T04:12:48;101005.0;;;11.3;81.44
50652;BME280;61429;52.086;5.240;2022-12-20T05:10:44;100986.0;;;11.5;85.5
50652;BME280;61429;52.086;5.240;2022-12-20T05:34:51;100944.0;;;11.51;86.74
50652;BME280;61429;52.086;5.240;2022-12-20T06:26:16;100903.0;;;11.77;82.57
50652;BME280;61429;52.086;5.240;2022-12-20T06:29:28;100898.0;;;11.86;82.37
50652;BME280;61429;52.086;5.240;2022-12-20T06:31:04;100903.0;;;12.04;81.66
50652;BME280;61429;52.086;5.240;2022-12-20T06:32:41;100902.0;;;12.08;81.19
50652;BME280;61429;52.086;5.240;2022-12-20T06:34:17;100908.0;;;11.96;81.14
50652;BME280;61429;52.086;5.240;2022-12-20T06:37:31;100910.0;;;12.01;80.87
50652;BME280;61429;52.086;5.240;2022-12-20T06:39:07;100911.0;;;12.1;80.56
50652;BME280;61429;52.086;5.240;2022-12-20T06:40:43;100913.0;;;12.16;79.92
50652;BME280;61429;52.086;5.240;2022-12-20T06:43:55;100909.0;;;11.94;80.66
50652;BME280;61429;52.086;5.240;2022-12-20T06:45:32;100908.0;;;11.97;80.52
50652;BME280;61429;52.086;5.240;2022-12-20T06:47:08;100908.0;;;12.02;80.11
50652;BME280;61429;52.086;5.240;2022-12-20T06:50:20;100902.0;;;11.91;80.45
50652;BME280;61429;52.086;5.240;2022-12-20T06:51:57;100908.0;;;11.96;80.0
50652;BME280;61429;52.086;5.240;2022-12-20T06:53:33;100917.0;;;11.99;79.66
50652;BME280;61429;52.086;5.240;2022-12-20T06:55:09;100914.0;;;11.99;79.77
50652;BME280;61429;52.086;5.240;2022-12-20T06:58:21;100918.0;;;12.07;79.16
50652;BME280;61429;52.086;5.240;2022-12-20T06:59:58;100915.0;;;12.13;79.12
50652;BME280;61429;52.086;5.240;2022-12-20T07:01:34;100914.0;;;12.06;79.17
50652;BME280;61429;52.086;5.240;2022-12-20T07:04:46;100907.0;;;11.97;79.47
50652;BME280;61429;52.086;5.240;2022-12-20T07:06:22;100912.0;;;12.04;79.16
50652;BME280;61429;52.086;5.240;2022-12-20T07:07:59;100912.0;;;11.99;79.22
50652;BME280;61429;52.086;5.240;2022-12-20T07:11:11;100921.0;;;12.14;78.77
50652;BME280;61429;52.086;5.240;2022-12-20T07:12:47;100914.0;;;12.1;78.83
50652;BME280;61429;52.086;5.240;2022-12-20T07:14:24;100910.0;;;12.03;78.91
50652;BME280;61429;52.086;5.240;2022-12-20T07:17:38;100906.0;;;12.22;78.03
50652;BME280;61429;52.086;5.240;2022-12-20T07:19:15;100919.0;;;12.05;78.24
50652;BME280;61429;52.086;5.240;2022-12-20T07:20:51;100918.0;;;12.19;78.2
50652;BME280;61429;52.086;5.240;2022-12-20T07:22:27;100913.0;;;12.23;77.99
50652;BME280;61429;52.086;5.240;2022-12-20T07:25:40;100908.0;;;12.23;77.69
50652;BME280;61429;52.086;5.240;2022-12-20T07:27:17;100916.0;;;12.05;78.11
50652;BME280;61429;52.086;5.240;2022-12-20T07:28:55;100913.0;;;12.14;77.95
50652;BME280;61429;52.086;5.240;2022-12-20T07:32:09;100915.0;;;12.24;77.72
50652;BME280;61429;52.086;5.240;2022-12-20T07:33:46;100920.0;;;12.19;77.69
50652;BME280;61429;52.086;5.240;2022-12-20T07:35:23;100918.0;;;12.09;78.08
50652;BME280;61429;52.086;5.240;2022-12-20T07:36:59;100917.0;;;12.19;77.77
50652;BME280;61429;52.086;5.240;2022-12-20T07:40:13;100922.0;;;12.13;77.8
50652;BME280;61429;52.086;5.240;2022-12-20T07:41:52;100925.0;;;12.14;77.97
50652;BME280;61429;52.086;5.240;2022-12-20T07:43:29;100918.0;;;12.21;77.86
50652;BME280;61429;52.086;5.240;2022-12-20T07:46:42;100926.0;;;12.06;78.72
50652;BME280;61429;52.086;5.240;2022-12-20T07:48:19;100922.0;;;11.97;78.8
50652;BME280;61429;52.086;5.240;2022-12-20T07:49:55;100924.0;;;11.97;78.94
50652;BME280;61429;52.086;5.240;2022-12-20T07:53:13;100930.0;;;12.06;78.95
50652;BME280;61429;52.086;5.240;2022-12-20T07:54:52;100930.0;;;12.13;78.78
50652;BME280;61429;52.086;5.240;2022-12-20T07:56:35;100925.0;;;12.24;78.47
50652;BME280;61429;52.086;5.240;2022-12-20T07:58:15;100931.0;;;12.11;78.73
50652;BME280;61429;52.086;5.240;2022-12-20T08:01:34;100932.0;;;12.08;78.86
50652;BME280;61429;52.086;5.240;2022-12-20T08:03:12;100932.0;;;12.17;78.67
50652;BME280;61429;52.086;5.240;2022-12-20T08:04:56;100935.0;;;11.96;79.22
50652;BME280;61429;52.086;5.240;2022-12-20T08:06:32;100927.0;;;12.09;79.11
50652;BME280;61429;52.086;5.240;2022-12-20T08:09:49;100923.0;;;12.09;79.02
50652;BME280;61429;52.086;5.240;2022-12-20T08:11:28;100920.0;;;12.18;78.66
50652;BME280;61429;52.086;5.240;2022-12-20T08:13:05;100917.0;;;11.97;79.22
50652;BME280;61429;52.086;5.240;2022-12-20T08:14:42;100915.0;;;12.06;79.02
50652;BME280;61429;52.086;5.240;2022-12-20T08:17:55;100914.0;;;11.99;79.33
50652;BME280;61429;52.086;5.240;2022-12-20T08:19:32;100916.0;;;12.0;79.3
50652;BME280;61429;52.086;5.240;2022-12-20T08:21:08;100921.0;;;12.07;78.98
50652;BME280;61429;52.086;5.240;2022-12-20T08:24:20;100926.0;;;12.14;78.49
50652;BME280;61429;52.086;5.240;2022-12-20T08:25:59;100922.0;;;12.11;78.49
50652;BME280;61429;52.086;5.240;2022-12-20T08:27:35;100914.0;;;12.06;78.66
50652;BME280;61429;52.086;5.240;2022-12-20T08:30:48;100916.0;;;12.09;78.3
50652;BME280;61429;52.086;5.240;2022-12-20T08:32:24;100912.0;;;12.08;78.36
50652;BME280;61429;52.086;5.240;2022-12-20T08:34:01;100914.0;;;12.15;78.11
50652;BME280;61429;52.086;5.240;2022-12-20T08:35:39;100916.0;;;12.2;77.86
50652;BME280;61429;52.086;5.240;2022-12-20T08:38:52;100910.0;;;12.14;78.11
50652;BME280;61429;52.086;5.240;2022-12-20T08:40:29;100913.0;;;12.1;78.33
50652;BME280;61429;52.086;5.240;2022-12-20T08:42:05;100906.0;;;11.98;78.77
50652;BME280;61429;52.086;5.240;2022-12-20T08:45:18;100912.0;;;12.02;78.49
50652;BME280;61429;52.086;5.240;2022-12-20T08:46:54;100911.0;;;12.15;78.19
50652;BME280;61429;52.086;5.240;2022-12-20T08:48:31;100916.0;;;12.01;78.44
50652;BME280;61429;52.086;5.240;2022-12-20T08:51:44;100911.0;;;12.01;78.55
50652;BME280;61429;52.086;5.240;2022-12-20T08:53:21;100910.0;;;12.11;78.33
50652;BME280;61429;52.086;5.240;2022-12-20T08:54:57;100915.0;;;12.02;78.72
50652;BME280;61429;52.086;5.240;2022-12-20T08:56:33;100912.0;;;11.89;79.66
50652;BME280;61429;52.086;5.240;2022-12-20T08:59:45;100916.0;;;11.91;80.11
50652;BME280;61429;52.086;5.240;2022-12-20T09:01:21;100915.0;;;12.05;80.03
50652;BME280;61429;52.086;5.240;2022-12-20T09:02:58;100906.0;;;11.89;80.7
50652;BME280;61429;52.086;5.240;2022-12-20T09:06:12;100908.0;;;11.97;80.84
50652;BME280;61429;52.086;5.240;2022-12-20T09:07:49;100913.0;;;11.73;81.86
50652;BME280;61429;52.086;5.240;2022-12-20T09:09:26;100905.0;;;11.74;82.18
50652;BME280;61429;52.086;5.240;2022-12-20T09:12:40;100902.0;;;11.78;81.88
50652;BME280;61429;52.086;5.240;2022-12-20T09:14:17;100907.0;;;11.86;82.39
50652;BME280;61429;52.086;5.240;2022-12-20T09:15:53;100907.0;;;11.97;81.97
50652;BME280;61429;52.086;5.240;2022-12-20T09:17:29;100910.0;;;11.77;82.95
50652;BME280;61429;52.086;5.240;2022-12-20T09:20:42;100910.0;;;11.8;83.03
50652;BME280;61429;52.086;5.240;2022-12-20T09:22:19;100914.0;;;11.85;83.15
50652;BME280;61429;52.086;5.240;2022-12-20T09:23:56;100902.0;;;11.74;83.73
50652;BME280;61429;52.086;5.240;2022-12-20T09:27:09;100905.0;;;11.91;83.23
50652;BME280;61429;52.086;5.240;2022-12-20T09:28:46;100906.0;;;11.79;83.58
50652;BME280;61429;52.086;5.240;2022-12-20T09:30:23;100909.0;;;11.81;83.76
50652;BME280;61429;52.086;5.240;2022-12-20T09:33:36;100905.0;;;11.72;84.53
50652;BME280;61429;52.086;5.240;2022-12-20T09:35:12;100908.0;;;11.83;84.36
50652;BME280;61429;52.086;5.240;2022-12-20T09:36:48;100917.0;;;11.83;84.46
50652;BME280;61429;52.086;5.240;2022-12-20T09:38:25;100918.0;;;11.93;84.32
50652;BME280;61429;52.086;5.240;2022-12-20T09:41:40;100916.0;;;11.83;84.83
50652;BME280;61429;52.086;5.240;2022-12-20T09:43:19;100920.0;;;11.83;85.34
50652;BME280;61429;52.086;5.240;2022-12-20T09:45:00;100924.0;;;11.72;85.96
50652;BME280;61429;52.086;5.240;2022-12-20T09:48:19;100924.0;;;11.69;86.27
50652;BME280;61429;52.086;5.240;2022-12-20T09:49:57;100923.0;;;11.76;86.2
50652;BME280;61429;52.086;5.240;2022-12-20T09:51:46;100922.0;;;11.79;86.27
50652;BME280;61429;52.086;5.240;2022-12-20T09:53:36;100925.0;;;11.81;86.35
50652;BME280;61429;52.086;5.240;2022-12-20T09:55:24;100931.0;;;11.79;86.41
50652;BME280;61429;52.086;5.240;2022-12-20T09:58:59;100924.0;;;11.63;86.87
50652;BME280;61429;52.086;5.240;2022-12-20T10:00:39;100921.0;;;11.71;86.92
50652;BME280;61429;52.086;5.240;2022-12-20T10:02:20;100919.0;;;11.79;86.68
50652;BME280;61429;52.086;5.240;2022-12-20T10:04:02;100921.0;;;11.71;86.83
50652;BME280;61429;52.086;5.240;2022-12-20T10:43:01;100901.0;;;11.74;87.96
50652;BME280;61429;52.086;5.240;2022-12-20T10:44:38;100901.0;;;11.8;87.98
50652;BME280;61429;52.086;5.240;2022-12-20T10:46:16;100892.0;;;11.63;88.54
50652;BME280;61429;52.086;5.240;2022-12-20T10:47:59;100892.0;;;11.78;88.17
50652;BME280;61429;52.086;5.240;2022-12-20T10:49:38;100888.0;;;11.67;88.53
50652;BME280;61429;52.086;5.240;2022-12-20T10:53:19;100883.0;;;11.69;88.46
50652;BME280;61429;52.086;5.240;2022-12-20T10:55:32;100884.0;;;11.61;89.02
50652;BME280;61429;52.086;5.240;2022-12-20T10:57:17;100880.0;;;11.75;88.26
50652;BME280;61429;52.086;5.240;2022-12-20T10:58:58;100884.0;;;11.81;88.11
50652;BME280;61429;52.086;5.240;2022-12-20T11:00:36;100876.0;;;11.76;88.33
50652;BME280;61429;52.086;5.240;2022-12-20T11:02:25;100877.0;;;11.72;88.72
50652;BME280;61429;52.086;5.240;2022-12-20T11:04:24;100880.0;;;11.73;88.54
50652;BME280;61429;52.086;5.240;2022-12-20T11:07:54;100880.0;;;11.71;88.65
50652;BME280;61429;52.086;5.240;2022-12-20T11:09:34;100875.0;;;11.73;88.81
50652;BME280;61429;52.086;5.240;2022-12-20T11:11:15;100873.0;;;11.8;88.42
50652;BME280;61429;52.086;5.240;2022-12-20T11:12:53;100874.0;;;11.84;88.26
50652;BME280;61429;52.086;5.240;2022-12-20T11:16:33;100867.0;;;11.95;87.97
50652;BME280;61429;52.086;5.240;2022-12-20T11:18:36;100861.0;;;11.9;87.94
50652;BME280;61429;52.086;5.240;2022-12-20T11:20:29;100861.0;;;11.9;87.98
50652;BME280;61429;52.086;5.240;2022-12-20T11:22:21;100858.0;;;11.89;87.89
50652;BME280;61429;52.086;5.240;2022-12-20T11:24:08;100860.0;;;11.85;88.45
50652;BME280;61429;52.086;5.240;2022-12-20T11:26:00;100862.0;;;11.81;88.65
50652;BME280;61429;52.086;5.240;2022-12-20T11:27:50;100865.0;;;11.71;89.06
50652;BME280;61429;52.086;5.240;2022-12-20T11:29:47;100861.0;;;11.81;88.99
50652;BME280;61429;52.086;5.240;2022-12-20T11:31:50;100858.0;;;11.79;88.82
50652;BME280;61429;52.086;5.240;2022-12-20T11:33:41;100862.0;;;11.84;88.75
50652;BME280;61429;52.086;5.240;2022-12-20T11:37:18;100857.0;;;11.87;88.52
50652;BME280;61429;52.086;5.240;2022-12-20T11:39:01;100860.0;;;11.87;88.42
50652;BME280;61429;52.086;5.240;2022-12-20T11:40:50;100853.0;;;11.91;88.34
50652;BME280;61429;52.086;5.240;2022-12-20T11:42:45;100852.0;;;11.96;88.41
50652;BME280;61429;52.086;5.240;2022-12-20T11:44:32;100857.0;;;11.97;88.44
50652;BME280;61429;52.086;5.240;2022-12-20T11:46:33;100851.0;;;11.94;88.51
50652;BME280;61429;52.086;5.240;2022-12-20T11:51:01;100855.0;;;11.87;88.82
50652;BME280;61429;52.086;5.240;2022-12-20T11:52:44;100853.0;;;11.96;88.39
50652;BME280;61429;52.086;5.240;2022-12-20T11:54:28;100853.0;;;11.99;88.25
50652;BME280;61429;52.086;5.240;2022-12-20T11:57:56;100857.0;;;12.05;88.2
50652;BME280;61429;52.086;5.240;2022-12-20T11:59:40;100857.0;;;11.95;88.56
50652;BME280;61429;52.086;5.240;2022-12-20T12:01:23;100856.0;;;12.05;88.2
50652;BME280;61429;52.086;5.240;2022-12-20T12:03:10;100855.0;;;12.02;88.57
50652;BME280;61429;52.086;5.240;2022-12-20T12:04:58;100842.0;;;11.9;88.64
50652;BME280;61429;52.086;5.240;2022-12-20T12:08:20;100846.0;;;11.99;88.84
50652;BME280;61429;52.086;5.240;2022-12-20T12:10:13;100845.0;;;11.85;89.3
50652;BME280;61429;52.086;5.240;2022-12-20T12:11:55;100852.0;;;12.05;88.77
50652;BME280;61429;52.086;5.240;2022-12-20T12:13:36;100855.0;;;11.96;88.84
50652;BME280;61429;52.086;5.240;2022-12-20T12:15:25;100847.0;;;12.07;88.75
50652;BME280;61429;52.086;5.240;2022-12-20T12:18:48;100840.0;;;12.03;88.89
50652;BME280;61429;52.086;5.240;2022-12-20T12:20:32;100843.0;;;12.08;88.72
50652;BME280;61429;52.086;5.240;2022-12-20T12:22:21;100836.0;;;12.12;88.77
50652;BME280;61429;52.086;5.240;2022-12-20T12:24:05;100841.0;;;12.09;88.96
50652;BME280;61429;52.086;5.240;2022-12-20T12:25:47;100842.0;;;12.07;89.19
50652;BME280;61429;52.086;5.240;2022-12-20T12:29:09;100834.0;;;11.99;89.02
50652;BME280;61429;52.086;5.240;2022-12-20T12:30:55;100839.0;;;12.13;89.02
50652;BME280;61429;52.086;5.240;2022-12-20T12:32:38;100837.0;;;12.16;88.61
50652;BME280;61429;52.086;5.240;2022-12-20T12:34:29;100841.0;;;12.17;88.58
50652;BME280;61429;52.086;5.240;2022-12-20T12:36:22;100838.0;;;11.99;89.35
50652;BME280;61429;52.086;5.240;2022-12-20T12:39:47;100838.0;;;12.05;89.17
50652;BME280;61429;52.086;5.240;2022-12-20T12:42:52;100841.0;;;12.07;89.28
50652;BME280;61429;52.086;5.240;2022-12-20T12:45:34;100843.0;;;12.19;88.79
50652;BME280;61429;52.086;5.240;2022-12-20T12:47:15;100836.0;;;12.29;88.19
50652;BME280;61429;52.086;5.240;2022-12-20T12:49:00;100842.0;;;12.22;88.71
50652;BME280;61429;52.086;5.240;2022-12-20T12:52:28;100844.0;;;12.11;89.19
50652;BME280;61429;52.086;5.240;2022-12-20T12:54:21;100845.0;;;12.27;88.4
50652;BME280;61429;52.086;5.240;2022-12-20T12:56:29;100848.0;;;12.42;87.61
50652;BME280;61429;52.086;5.240;2022-12-20T13:00:47;100852.0;;;12.44;87.44
50652;BME280;61429;52.086;5.240;2022-12-20T13:02:34;100851.0;;;12.41;87.28
50652;BME280;61429;52.086;5.240;2022-12-20T13:04:52;100852.0;;;12.32;87.92
50652;BME280;61429;52.086;5.240;2022-12-20T13:07:25;100848.0;;;12.23;88.29
50652;BME280;61429;52.086;5.240;2022-12-20T13:11:11;100842.0;;;12.28;88.2
50652;BME280;61429;52.086;5.240;2022-12-20T13:13:12;100840.0;;;12.33;88.33
50652;BME280;61429;52.086;5.240;2022-12-20T13:14:49;100844.0;;;12.37;88.06
50652;BME280;61429;52.086;5.240;2022-12-20T13:16:28;100837.0;;;12.21;88.83
50652;BME280;61429;52.086;5.240;2022-12-20T13:18:20;100837.0;;;12.18;89.31
50652;BME280;61429;52.086;5.240;2022-12-20T13:21:36;100838.0;;;12.38;88.66
50652;BME280;61429;52.086;5.240;2022-12-20T13:23:14;100836.0;;;12.38;88.57
50652;BME280;61429;52.086;5.240;2022-12-20T13:24:55;100832.0;;;12.29;88.91
50652;BME280;61429;52.086;5.240;2022-12-20T13:26:51;100834.0;;;12.37;88.62
50652;BME280;61429;52.086;5.240;2022-12-20T13:28:44;100835.0;;;12.32;88.74
50652;BME280;61429;52.086;5.240;2022-12-20T13:32:52;100836.0;;;12.34;88.58
50652;BME280;61429;52.086;5.240;2022-12-20T13:34:52;100839.0;;;12.25;89.24
50652;BME280;61429;52.086;5.240;2022-12-20T13:36:34;100833.0;;;12.3;89.06
50652;BME280;61429;52.086;5.240;2022-12-20T13:39:31;100840.0;;;12.34;89.01
50652;BME280;61429;52.086;5.240;2022-12-20T13:41:16;100835.0;;;12.38;88.8
50652;BME280;61429;52.086;5.240;2022-12-20T13:44:42;100832.0;;;12.4;88.8
50652;BME280;61429;52.086;5.240;2022-12-20T13:46:25;100827.0;;;12.46;88.51
50652;BME280;61429;52.086;5.240;2022-12-20T13:48:05;100833.0;;;12.42;88.74
50652;BME280;61429;52.086;5.240;2022-12-20T13:49:46;100838.0;;;12.24;89.17
50652;BME280;61429;52.086;5.240;2022-12-20T13:53:03;100832.0;;;12.38;89.05
50652;BME280;61429;52.086;5.240;2022-12-20T13:54:42;100832.0;;;12.43;88.55
50652;BME280;61429;52.086;5.240;2022-12-20T13:56:34;100830.0;;;12.32;88.67
50652;BME280;61429;52.086;5.240;2022-12-20T13:58:23;100830.0;;;12.39;88.73
50652;BME280;61429;52.086;5.240;2022-12-20T14:00:04;100824.0;;;12.42;88.82
50652;BME280;61429;52.086;5.240;2022-12-20T14:03:29;100828.0;;;12.39;88.78
50652;BME280;61429;52.086;5.240;2022-12-20T14:05:15;100828.0;;;12.33;89.08
50652;BME280;61429;52.086;5.240;2022-12-20T14:06:57;100830.0;;;12.4;88.62
50652;BME280;61429;52.086;5.240;2022-12-20T14:08:38;100830.0;;;12.35;88.72
50652;BME280;61429;52.086;5.240;2022-12-20T14:10:20;100825.0;;;12.47;88.43
50652;BME280;61429;52.086;5.240;2022-12-20T14:13:41;100825.0;;;12.47;88.3
50652;BME280;61429;52.086;5.240;2022-12-20T14:15:26;100827.0;;;12.47;88.17
50652;BME280;61429;52.086;5.240;2022-12-20T14:17:14;100826.0;;;12.48;88.1
50652;BME280;61429;52.086;5.240;2022-12-20T14:19:14;100832.0;;;12.48;87.89
50652;BME280;61429;52.086;5.240;2022-12-20T14:20:53;100832.0;;;12.5;87.97
50652;BME280;61429;52.086;5.240;2022-12-20T14:24:13;100836.0;;;12.57;87.45
50652;BME280;61429;52.086;5.240;2022-12-20T14:25:54;100843.0;;;12.38;88.37
50652;BME280;61429;52.086;5.240;2022-12-20T14:27:35;100841.0;;;12.48;87.79
50652;BME280;61429;52.086;5.240;2022-12-20T14:29:17;100839.0;;;12.59;87.27
50652;BME280;61429;52.086;5.240;2022-12-20T14:32:33;100843.0;;;12.38;88.25
50652;BME280;61429;52.086;5.240;2022-12-20T14:34:14;100840.0;;;12.48;87.87
50652;BME280;61429;52.086;5.240;2022-12-20T14:35:52;100843.0;;;12.42;87.87
50652;BME280;61429;52.086;5.240;2022-12-20T14:37:31;100850.0;;;12.5;87.58
50652;BME280;61429;52.086;5.240;2022-12-20T14:41:04;100848.0;;;12.46;87.42
50652;BME280;61429;52.086;5.240;2022-12-20T14:42:41;100848.0;;;12.46;87.73
50652;BME280;61429;52.086;5.240;2022-12-20T14:44:21;100845.0;;;12.5;87.36
50652;BME280;61429;52.086;5.240;2022-12-20T14:46:30;100828.0;;;12.35;87.93
50652;BME280;61429;52.086;5.240;2022-12-20T14:48:13;100825.0;;;12.41;87.71
50652;BME280;61429;52.086;5.240;2022-12-20T14:51:34;100820.0;;;12.42;88.0
50652;BME280;61429;52.086;5.240;2022-12-20T14:53:16;100817.0;;;12.39;87.82
50652;BME280;61429;52.086;5.240;2022-12-20T14:54:58;100816.0;;;12.44;87.66
50652;BME280;61429;52.086;5.240;2022-12-20T14:56:37;100811.0;;;12.44;87.55
50652;BME280;61429;52.086;5.240;2022-12-20T15:00:11;100807.0;;;12.25;87.82
50652;BME280;61429;52.086;5.240;2022-12-20T15:01:49;100814.0;;;12.43;87.6
50652;BME280;61429;52.086;5.240;2022-12-20T15:03:27;100818.0;;;12.24;88.26
50652;BME280;61429;52.086;5.240;2022-12-20T15:05:08;100815.0;;;12.37;88.07
50652;BME280;61429;52.086;5.240;2022-12-20T15:07:28;100816.0;;;12.32;88.21
50652;BME280;61429;52.086;5.240;2022-12-20T15:09:06;100812.0;;;12.47;87.44
50652;BME280;61429;52.086;5.240;2022-12-20T15:12:27;100813.0;;;12.33;87.82
50652;BME280;61429;52.086;5.240;2022-12-20T15:14:16;100819.0;;;12.34;87.47
50652;BME280;61429;52.086;5.240;2022-12-20T15:15:58;100822.0;;;12.31;87.59
50652;BME280;61429;52.086;5.240;2022-12-20T15:17:36;100819.0;;;12.35;87.6
50652;BME280;61429;52.086;5.240;2022-12-20T15:20:59;100821.0;;;12.34;87.36
50652;BME280;61429;52.086;5.240;2022-12-20T15:22:39;100820.0;;;12.31;87.67
50652;BME280;61429;52.086;5.240;2022-12-20T15:24:24;100819.0;;;12.45;87.12
50652;BME280;61429;52.086;5.240;2022-12-20T15:26:02;100820.0;;;12.45;86.96
50652;BME280;61429;52.086;5.240;2022-12-20T15:29:18;100818.0;;;12.31;87.43
50652;BME280;61429;52.086;5.240;2022-12-20T15:30:55;100816.0;;;12.28;87.62
50652;BME280;61429;52.086;5.240;2022-12-20T15:32:33;100817.0;;;12.33;87.49
50652;BME280;61429;52.086;5.240;2022-12-20T15:34:13;100820.0;;;12.38;87.26
50652;BME280;61429;52.086;5.240;2022-12-20T15:37:29;100818.0;;;12.22;87.86
50652;BME280;61429;52.086;5.240;2022-12-20T15:39:08;100817.0;;;12.29;87.6
50652;BME280;61429;52.086;5.240;2022-12-20T15:40:48;100812.0;;;12.22;87.84
50652;BME280;61429;52.086;5.240;2022-12-20T15:42:25;100811.0;;;12.42;87.03
50652;BME280;61429;52.086;5.240;2022-12-20T15:45:44;100809.0;;;12.48;86.77
50652;BME280;61429;52.086;5.240;2022-12-20T15:47:22;100807.0;;;12.35;87.12
50652;BME280;61429;52.086;5.240;2022-12-20T15:48:59;100813.0;;;12.48;86.58
50652;BME280;61429;52.086;5.240;2022-12-20T15:52:22;100809.0;;;12.33;87.25
50652;BME280;61429;52.086;5.240;2022-12-20T15:54:00;100811.0;;;12.3;86.99
50652;BME280;61429;52.086;5.240;2022-12-20T15:55:40;100817.0;;;12.27;87.49
50652;BME280;61429;52.086;5.240;2022-12-20T15:57:17;100820.0;;;12.36;87.15
50652;BME280;61429;52.086;5.240;2022-12-20T16:00:32;100821.0;;;12.33;87.3
50652;BME280;61429;52.086;5.240;2022-12-20T16:02:17;100826.0;;;12.46;86.61
50652;BME280;61429;52.086;5.240;2022-12-20T16:03:56;100825.0;;;12.42;86.58
50652;BME280;61429;52.086;5.240;2022-12-20T16:05:33;100826.0;;;12.45;86.51
50652;BME280;61429;52.086;5.240;2022-12-20T16:08:47;100831.0;;;12.42;86.61
50652;BME280;61429;52.086;5.240;2022-12-20T16:10:24;100830.0;;;12.38;86.75
50652;BME280;61429;52.086;5.240;2022-12-20T16:12:03;100834.0;;;12.32;86.84
50652;BME280;61429;52.086;5.240;2022-12-20T16:15:20;100836.0;;;12.31;86.85
50652;BME280;61429;52.086;5.240;2022-12-20T16:16:57;100842.0;;;12.35;86.87
50652;BME280;61429;52.086;5.240;2022-12-20T16:18:35;100844.0;;;12.28;87.03
50652;BME280;61429;52.086;5.240;2022-12-20T16:20:11;100845.0;;;12.27;87.24
50652;BME280;61429;52.086;5.240;2022-12-20T16:23:27;100847.0;;;12.31;86.91
50652;BME280;61429;52.086;5.240;2022-12-20T16:25:05;100848.0;;;12.38;86.51
50652;BME280;61429;52.086;5.240;2022-12-20T16:26:41;100848.0;;;12.19;87.29
50652;BME280;61429;52.086;5.240;2022-12-20T16:29:54;100845.0;;;12.18;87.22
50652;BME280;61429;52.086;5.240;2022-12-20T16:31:33;100844.0;;;12.3;87.01
50652;BME280;61429;52.086;5.240;2022-12-20T16:33:18;100843.0;;;12.17;87.42
50652;BME280;61429;52.086;5.240;2022-12-20T16:34:55;100838.0;;;12.25;87.37
50652;BME280;61429;52.086;5.240;2022-12-20T16:38:09;100836.0;;;12.18;87.44
50652;BME280;61429;52.086;5.240;2022-12-20T16:39:46;100836.0;;;12.24;87.39
50652;BME280;61429;52.086;5.240;2022-12-20T16:41:26;100839.0;;;12.23;87.41
50652;BME280;61429;52.086;5.240;2022-12-20T16:43:04;100841.0;;;12.26;87.24
50652;BME280;61429;52.086;5.240;2022-12-20T16:46:23;100837.0;;;12.04;87.82
50652;BME280;61429;52.086;5.240;2022-12-20T16:48:00;100839.0;;;12.2;87.77
50652;BME280;61429;52.086;5.240;2022-12-20T16:49:37;100842.0;;;12.15;88.05
50652;BME280;61429;52.086;5.240;2022-12-20T16:52:59;100838.0;;;12.2;87.64
50652;BME280;61429;52.086;5.240;2022-12-20T16:54:36;100833.0;;;12.11;87.98
50652;BME280;61429;52.086;5.240;2022-12-20T16:56:13;100839.0;;;12.19;87.92
50652;BME280;61429;52.086;5.240;2022-12-20T16:57:50;100841.0;;;12.22;87.77
50652;BME280;61429;52.086;5.240;2022-12-20T17:01:03;100840.0;;;12.21;87.58
50652;BME280;61429;52.086;5.240;2022-12-20T17:02:40;100836.0;;;12.18;87.97
50652;BME280;61429;52.086;5.240;2022-12-20T17:04:17;100835.0;;;12.19;87.88
50652;BME280;61429;52.086;5.240;2022-12-20T17:07:33;100835.0;;;12.04;88.22
50652;BME280;61429;52.086;5.240;2022-12-20T17:09:10;100830.0;;;12.19;88.0
50652;BME280;61429;52.086;5.240;2022-12-20T17:10:47;100828.0;;;12.25;87.72
50652;BME280;61429;52.086;5.240;2022-12-20T17:12:24;100832.0;;;12.08;88.16
50652;BME280;61429;52.086;5.240;2022-12-20T17:15:38;100834.0;;;12.15;87.83
50652;BME280;61429;52.086;5.240;2022-12-20T17:18:54;100843.0;;;12.18;87.74
50652;BME280;61429;52.086;5.240;2022-12-20T17:22:09;100846.0;;;12.13;88.01
50652;BME280;61429;52.086;5.240;2022-12-20T17:23:47;100848.0;;;12.21;87.96
50652;BME280;61429;52.086;5.240;2022-12-20T17:25:27;100842.0;;;12.18;87.68
50652;BME280;61429;52.086;5.240;2022-12-20T17:27:05;100839.0;;;12.26;87.53
50652;BME280;61429;52.086;5.240;2022-12-20T17:30:18;100845.0;;;12.1;88.09
50652;BME280;61429;52.086;5.240;2022-12-20T17:31:55;100845.0;;;12.11;88.18
50652;BME280;61429;52.086;5.240;2022-12-20T17:33:31;100849.0;;;12.17;88.16
50652;BME280;61429;52.086;5.240;2022-12-20T17:36:56;100850.0;;;12.2;87.78
50652;BME280;61429;52.086;5.240;2022-12-20T17:38:33;100852.0;;;12.14;87.86
50652;BME280;61429;52.086;5.240;2022-12-20T17:40:12;100855.0;;;12.14;88.01
50652;BME280;61429;52.086;5.240;2022-12-20T17:41:49;100852.0;;;12.17;87.77
50652;BME280;61429;52.086;5.240;2022-12-20T17:45:04;100840.0;;;12.19;87.66
50652;BME280;61429;52.086;5.240;2022-12-20T17:46:40;100840.0;;;12.14;88.0
50652;BME280;61429;52.086;5.240;2022-12-20T17:48:16;100837.0;;;12.19;87.7
50652;BME280;61429;52.086;5.240;2022-12-20T17:51:29;100836.0;;;12.13;87.8
50652;BME280;61429;52.086;5.240;2022-12-20T17:53:07;100842.0;;;12.18;87.76
50652;BME280;61429;52.086;5.240;2022-12-20T17:54:44;100851.0;;;12.11;88.02
50652;BME280;61429;52.086;5.240;2022-12-20T17:56:23;100852.0;;;11.91;88.39